Time;durP1;ratioP1;P1;durP2;ratioP2;P2;SDS_P1;SDS_P2;PMS_P1;PMS_P2;Temp;Humidity;BMP_temperature;BMP_pressure;BME280_temperature;BME280_humidity;BME280_pressure;Samples;Min_cycle;Max_cycle;Signal;HPM_P1;HPM_P2
2023/11/03 00:03:20;;;;;;;10.20;3.40;;;;;;;14.55;62.17;96796.99;234524;215;138058;-53
2023/11/03 00:08:24;;;;;;;8.10;4.10;;;;;;;14.43;63.34;96788.52;233982;215;149617;-57
2023/11/03 00:13:27;;;;;;;9.10;4.00;;;;;;;14.36;64.77;96777.03;234351;215;139793;-59
2023/11/03 00:18:31;;;;;;;9.40;4.50;;;;;;;14.30;65.84;96773.11;234454;215;138169;-59
2023/11/03 00:23:37;;;;;;;8.90;4.60;;;;;;;14.25;66.61;96777.09;234389;215;147984;-59
2023/11/03 00:28:41;;;;;;;8.70;4.80;;;;;;;14.20;67.44;96778.80;234493;215;140576;-59
2023/11/03 00:33:44;;;;;;;10.50;4.70;;;;;;;14.12;67.90;96775.29;234311;215;138161;-60
2023/11/03 00:38:47;;;;;;;10.70;4.60;;;;;;;14.02;68.29;96757.92;234344;215;149981;-59
2023/11/03 00:43:50;;;;;;;7.70;4.80;;;;;;;14.02;68.20;96739.85;234047;215;138863;-56
2023/11/03 00:48:54;;;;;;;7.90;4.20;;;;;;;14.08;68.11;96754.18;234395;215;138290;-56
2023/11/03 00:53:57;;;;;;;8.70;3.90;;;;;;;14.07;68.50;96758.20;234444;215;149957;-56
2023/11/03 00:59:02;;;;;;;6.30;4.00;;;;;;;14.18;68.71;96747.19;234385;215;139999;-55
2023/11/03 01:04:06;;;;;;;7.20;3.90;;;;;;;14.27;68.73;96736.63;234446;215;159243;-55
2023/11/03 01:09:09;;;;;;;5.20;3.50;;;;;;;14.34;68.55;96748.54;234325;215;151925;-54
2023/11/03 01:14:13;;;;;;;7.30;3.50;;;;;;;14.36;68.52;96749.56;234344;215;138662;-57
2023/11/03 01:19:20;;;;;;;6.80;2.70;;;;;;;14.34;68.41;96732.48;234162;215;137732;-57
2023/11/03 01:24:25;;;;;;;5.00;3.00;;;;;;;14.38;68.83;96719.65;234351;215;149947;-59
2023/11/03 01:29:29;;;;;;;6.30;3.40;;;;;;;14.43;68.81;96724.45;234278;215;140619;-57
2023/11/03 01:34:32;;;;;;;6.00;3.90;;;;;;;14.41;69.15;96707.77;233642;215;139963;-59
2023/11/03 01:39:36;;;;;;;6.60;3.50;;;;;;;14.41;69.72;96695.95;233086;215;150290;-53
2023/11/03 01:44:40;;;;;;;5.30;3.60;;;;;;;14.38;69.67;96694.87;233189;215;139641;-56
2023/11/03 01:49:46;;;;;;;8.30;3.50;;;;;;;14.35;69.94;96697.15;234232;215;138169;-55
2023/11/03 01:54:50;;;;;;;9.10;5.30;;;;;;;14.36;70.14;96694.21;234391;215;149952;-53
2023/11/03 01:59:54;;;;;;;15.90;7.00;;;;;;;14.39;70.00;96704.83;234348;215;139108;-54
2023/11/03 02:04:58;;;;;;;12.20;7.00;;;;;;;14.38;70.22;96697.24;234458;215;137407;-54
2023/11/03 02:10:06;;;;;;;11.80;6.60;;;;;;;14.36;70.29;96694.95;234189;215;149520;-56
2023/11/03 02:15:10;;;;;;;10.90;6.30;;;;;;;14.31;70.46;96686.07;234105;215;138947;-50
2023/11/03 02:20:14;;;;;;;11.80;5.00;;;;;;;14.24;70.65;96678.70;234229;215;137650;-51
2023/11/03 02:25:18;;;;;;;8.80;4.50;;;;;;;14.19;70.74;96662.60;234382;215;149261;-52
2023/11/03 02:30:21;;;;;;;9.70;5.60;;;;;;;14.23;71.00;96655.14;234342;215;139381;-53
2023/11/03 02:35:24;;;;;;;8.30;4.80;;;;;;;14.29;70.80;96657.24;234338;215;138174;-52
2023/11/03 02:40:28;;;;;;;5.20;3.70;;;;;;;14.23;70.63;96642.75;234375;215;149091;-55
2023/11/03 02:45:32;;;;;;;5.10;3.50;;;;;;;14.18;70.98;96651.84;233772;215;138800;-54
2023/11/03 02:50:35;;;;;;;7.20;3.20;;;;;;;14.19;71.08;96649.33;234103;215;138010;-53
2023/11/03 02:55:39;;;;;;;3.10;2.40;;;;;;;14.23;71.18;96644.20;234116;215;149435;-51
2023/11/03 03:00:43;;;;;;;4.80;2.70;;;;;;;14.28;71.10;96634.86;234348;215;138743;-53
2023/11/03 03:05:46;;;;;;;3.90;2.60;;;;;;;14.33;70.78;96634.45;234429;215;137564;-52
2023/11/03 03:10:50;;;;;;;4.70;2.70;;;;;;;14.28;70.97;96637.98;234055;215;149887;-50
2023/11/03 03:15:53;;;;;;;7.00;3.40;;;;;;;14.18;70.73;96629.98;233881;215;139784;-54
2023/11/03 03:20:56;;;;;;;5.10;3.60;;;;;;;14.05;70.99;96626.72;233798;215;137290;-56
2023/11/03 03:25:59;;;;;;;4.90;2.70;;;;;;;14.03;71.22;96621.98;234359;215;151240;-55
2023/11/03 03:31:03;;;;;;;6.90;3.20;;;;;;;14.13;71.15;96602.06;234218;215;139625;-55
2023/11/03 03:36:08;;;;;;;5.70;2.90;;;;;;;14.25;70.67;96601.09;234025;215;138414;-53
2023/11/03 03:41:16;;;;;;;5.80;3.40;;;;;;;14.29;70.56;96602.29;234129;215;150805;-54
2023/11/03 03:46:20;;;;;;;6.60;3.00;;;;;;;14.38;70.35;96589.44;233878;215;138781;-56
2023/11/03 03:51:24;;;;;;;6.40;3.00;;;;;;;14.42;70.01;96590.11;234067;215;138147;-56
2023/11/03 03:56:27;;;;;;;7.10;3.30;;;;;;;14.39;69.66;96583.81;233870;215;149667;-57
2023/11/03 04:01:31;;;;;;;4.50;2.60;;;;;;;14.36;69.63;96560.29;233474;215;138784;-58
2023/11/03 04:06:34;;;;;;;4.30;2.80;;;;;;;14.39;69.57;96546.34;233544;215;139340;-58
2023/11/03 04:11:37;;;;;;;5.50;2.90;;;;;;;14.52;69.03;96552.19;234440;215;149458;-57
2023/11/03 04:16:41;;;;;;;7.50;3.30;;;;;;;14.56;68.50;96530.71;233725;214;138850;-57
2023/11/03 04:21:44;;;;;;;7.80;3.40;;;;;;;14.57;68.11;96520.86;233624;215;138303;-55
2023/11/03 04:26:48;;;;;;;8.00;3.80;;;;;;;14.58;67.83;96508.45;233863;215;149284;-56
2023/11/03 04:31:52;;;;;;;6.80;3.70;;;;;;;14.58;67.36;96500.79;233993;215;138747;-51
2023/11/03 04:36:55;;;;;;;9.30;3.80;;;;;;;14.57;67.27;96483.30;234418;215;138378;-51
2023/11/03 04:41:58;;;;;;;10.30;3.60;;;;;;;14.56;66.98;96467.59;234334;215;150252;-55
2023/11/03 04:47:02;;;;;;;6.50;3.20;;;;;;;14.59;66.89;96466.85;233871;215;140182;-51
2023/11/03 04:52:05;;;;;;;4.30;2.30;;;;;;;14.61;66.70;96457.95;234045;215;138779;-51
2023/11/03 04:57:09;;;;;;;4.20;1.80;;;;;;;14.61;66.71;96464.45;233887;215;149389;-53
2023/11/03 05:02:12;;;;;;;2.50;1.70;;;;;;;14.55;66.67;96464.38;234315;215;138664;-55
2023/11/03 05:07:15;;;;;;;4.00;2.10;;;;;;;14.46;66.71;96471.53;234249;215;138431;-53
2023/11/03 05:12:18;;;;;;;3.30;2.00;;;;;;;14.39;66.59;96456.27;234349;215;149340;-53
2023/11/03 05:17:22;;;;;;;3.30;2.10;;;;;;;14.33;66.51;96459.22;233903;215;138905;-56
2023/11/03 05:22:25;;;;;;;3.30;2.10;;;;;;;14.30;66.64;96459.73;234432;215;137986;-56
2023/11/03 05:27:28;;;;;;;3.80;2.00;;;;;;;14.26;66.66;96455.52;234066;215;149505;-54
2023/11/03 05:32:34;;;;;;;5.20;2.20;;;;;;;14.25;66.44;96464.05;234406;215;138968;-54
2023/11/03 05:37:37;;;;;;;3.70;1.90;;;;;;;14.22;66.27;96459.05;234279;215;138596;-51
2023/11/03 05:42:40;;;;;;;2.10;1.70;;;;;;;14.21;66.00;96442.63;234349;215;149152;-55
2023/11/03 05:47:45;;;;;;;4.90;2.10;;;;;;;14.22;65.86;96451.40;234113;215;138961;-53
2023/11/03 05:52:48;;;;;;;4.60;2.10;;;;;;;14.27;65.94;96446.63;233846;215;137698;-54
2023/11/03 05:57:51;;;;;;;3.10;1.90;;;;;;;14.30;65.89;96435.73;233559;215;150190;-52
2023/11/03 06:02:55;;;;;;;3.30;2.10;;;;;;;14.29;65.78;96419.62;234177;215;139310;-54
2023/11/03 06:07:58;;;;;;;6.40;3.00;;;;;;;14.28;65.53;96425.20;234443;215;138706;-58
2023/11/03 06:13:01;;;;;;;5.70;2.40;;;;;;;14.23;65.23;96420.57;234471;215;149277;-57
2023/11/03 06:18:05;;;;;;;5.30;2.40;;;;;;;14.22;65.22;96435.10;234385;215;138731;-54
2023/11/03 06:23:08;;;;;;;8.40;2.60;;;;;;;14.19;64.71;96425.98;233594;215;137878;-55
2023/11/03 06:28:12;;;;;;;3.60;1.90;;;;;;;14.25;64.39;96419.06;234493;215;149939;-53
2023/11/03 06:33:16;;;;;;;4.40;2.20;;;;;;;14.29;64.22;96426.27;234397;215;140503;-55
2023/11/03 06:38:19;;;;;;;7.10;2.70;;;;;;;14.25;63.80;96446.91;234418;215;138153;-54
2023/11/03 06:43:22;;;;;;;6.40;2.40;;;;;;;14.24;63.89;96444.19;234394;215;150934;-50
2023/11/03 06:48:25;;;;;;;5.10;2.30;;;;;;;14.24;63.91;96439.87;234323;215;139501;-49
2023/11/03 06:53:28;;;;;;;5.70;2.10;;;;;;;14.22;63.78;96435.64;233638;215;137783;-54
2023/11/03 06:58:34;;;;;;;4.00;2.20;;;;;;;14.19;64.04;96430.70;233850;215;149382;-53
2023/11/03 07:03:38;;;;;;;5.70;2.80;;;;;;;14.16;64.29;96419.29;234481;215;138881;-57
2023/11/03 07:08:41;;;;;;;6.00;2.20;;;;;;;14.18;64.31;96407.93;233849;215;138623;-54
2023/11/03 07:13:45;;;;;;;5.80;2.60;;;;;;;14.29;63.86;96405.28;234002;215;149841;-54
2023/11/03 07:18:48;;;;;;;4.20;2.10;;;;;;;14.41;63.27;96408.44;234388;215;138918;-55
2023/11/03 07:23:52;;;;;;;8.00;3.10;;;;;;;14.56;63.09;96394.02;233465;215;139641;-54
2023/11/03 07:28:56;;;;;;;10.70;3.60;;;;;;;14.64;62.89;96398.73;234384;215;149817;-54
2023/11/03 07:33:59;;;;;;;84.80;56.70;;;;;;;14.72;63.04;96403.98;234438;215;138550;-55
2023/11/03 07:39:06;;;;;;;20.80;7.10;;;;;;;14.75;62.35;96390.94;234379;215;137709;-52
2023/11/03 07:44:12;;;;;;;35.30;19.60;;;;;;;14.77;62.27;96395.53;234273;215;149601;-52
2023/11/03 07:49:17;;;;;;;9.00;5.30;;;;;;;14.79;62.57;96388.01;233770;215;138888;-49
2023/11/03 07:54:20;;;;;;;5.60;2.50;;;;;;;14.79;62.32;96376.92;233583;215;138053;-53
2023/11/03 07:59:23;;;;;;;8.50;2.30;;;;;;;14.78;62.14;96364.20;234206;215;150295;-52
2023/11/03 08:04:26;;;;;;;13.20;2.80;;;;;;;14.80;62.00;96368.83;233105;215;140553;-54
2023/11/03 08:09:30;;;;;;;20.40;12.90;;;;;;;14.76;62.31;96373.09;234575;215;138371;-52
2023/11/03 08:14:35;;;;;;;4.90;2.60;;;;;;;14.77;62.45;96375.71;234484;215;149398;-51
2023/11/03 08:19:38;;;;;;;3.70;2.30;;;;;;;14.75;62.28;96377.05;234420;215;139479;-54
2023/11/03 08:24:42;;;;;;;86.70;57.50;;;;;;;14.73;62.23;96375.83;234316;215;138315;-53
2023/11/03 08:29:45;;;;;;;8.30;3.80;;;;;;;14.78;62.61;96373.70;233648;215;149331;-49
2023/11/03 08:34:48;;;;;;;5.50;2.20;;;;;;;14.81;62.44;96365.27;234323;215;139335;-53
2023/11/03 08:39:52;;;;;;;85.40;69.50;;;;;;;14.81;62.37;96355.75;234495;215;137480;-57
2023/11/03 08:44:56;;;;;;;4.50;2.20;;;;;;;14.86;62.58;96338.17;234235;215;149995;-52
2023/11/03 08:49:59;;;;;;;7.30;2.30;;;;;;;14.94;62.48;96325.53;234417;211;140080;-52
2023/11/03 08:55:06;;;;;;;7.50;2.30;;;;;;;14.95;62.25;96318.34;234417;215;138180;-52
2023/11/03 09:00:15;;;;;;;9.80;2.60;;;;;;;14.98;62.33;96327.27;233918;215;150053;-53
2023/11/03 09:05:20;;;;;;;9.20;2.90;;;;;;;15.04;62.51;96329.23;233889;215;138971;-53
2023/11/03 09:10:24;;;;;;;7.60;2.70;;;;;;;15.09;62.55;96317.36;234111;215;137950;-53
2023/11/03 09:15:29;;;;;;;334.00;236.50;;;;;;;15.12;62.70;96302.14;234207;215;149374;-56
2023/11/03 09:20:41;;;;;;;10.50;4.60;;;;;;;15.21;62.96;96296.25;234244;215;139327;-53
2023/11/03 09:25:44;;;;;;;5.30;2.60;;;;;;;15.32;62.71;96281.44;234130;215;138263;-54
2023/11/03 09:30:49;;;;;;;4.00;2.30;;;;;;;15.42;62.34;96272.29;233988;215;149350;-54
2023/11/03 09:35:52;;;;;;;11.20;5.10;;;;;;;15.53;62.36;96262.73;233457;215;139581;-55
2023/11/03 09:40:56;;;;;;;16.50;4.20;;;;;;;15.61;62.17;96249.01;233846;215;138304;-53
2023/11/03 09:45:59;;;;;;;15.60;3.60;;;;;;;15.68;61.99;96236.40;234389;215;149257;-53
2023/11/03 09:51:03;;;;;;;248.40;172.50;;;;;;;15.72;61.95;96229.52;234233;215;138902;-57
2023/11/03 09:56:07;;;;;;;4.30;2.60;;;;;;;15.84;61.21;96226.04;234002;215;138834;-55
2023/11/03 10:01:15;;;;;;;5.50;2.10;;;;;;;15.93;60.54;96217.89;234043;215;149773;-53
2023/11/03 10:06:20;;;;;;;6.40;2.10;;;;;;;15.99;60.27;96199.06;234247;215;138722;-52
2023/11/03 10:11:23;;;;;;;8.70;3.30;;;;;;;16.02;60.11;96186.04;234150;215;138181;-54
2023/11/03 10:16:26;;;;;;;8.20;4.10;;;;;;;16.04;60.01;96167.88;234107;215;150415;-51
2023/11/03 10:21:29;;;;;;;13.60;4.70;;;;;;;16.03;60.06;96154.55;234223;215;139718;-52
2023/11/03 10:26:33;;;;;;;11.00;4.20;;;;;;;16.04;60.27;96156.87;234116;215;138713;-54
2023/11/03 10:31:36;;;;;;;16.50;4.80;;;;;;;16.06;60.38;96162.64;234167;215;149948;-53
2023/11/03 10:36:41;;;;;;;17.40;4.30;;;;;;;16.06;60.42;96154.55;234201;215;138813;-53
2023/11/03 10:41:45;;;;;;;8.80;2.80;;;;;;;16.06;60.35;96160.92;234109;215;137264;-51
2023/11/03 10:46:55;;;;;;;167.80;111.50;;;;;;;16.08;60.02;96152.08;233711;215;149758;-53
2023/11/03 10:52:13;;;;;;;12.50;4.50;;;;;;;16.11;60.06;96138.81;234212;215;139323;-51
2023/11/03 10:57:17;;;;;;;11.50;3.50;;;;;;;16.12;59.84;96115.62;234201;215;139907;-54
2023/11/03 11:03:05;;;;;;;7.20;3.30;;;;;;;16.10;59.96;96094.48;233516;215;150393;-53
2023/11/03 11:08:10;;;;;;;12.20;4.10;;;;;;;16.10;59.65;96105.54;234068;216;141205;-52
2023/11/03 11:13:22;;;;;;;11.90;3.50;;;;;;;16.06;60.05;96098.75;234101;215;137901;-53
2023/11/03 11:18:28;;;;;;;17.30;4.00;;;;;;;16.05;60.19;96089.76;234171;215;149874;-52
2023/11/03 11:23:37;;;;;;;12.20;4.30;;;;;;;16.05;60.34;96080.10;234110;215;139037;-53
2023/11/03 11:28:43;;;;;;;16.40;4.60;;;;;;;16.04;60.36;96054.27;234181;215;140987;-51
2023/11/03 11:34:19;;;;;;;157.20;103.70;;;;;;;16.04;60.02;96042.66;234302;215;150110;-55
2023/11/03 11:39:22;;;;;;;5.40;2.90;;;;;;;16.04;59.73;96059.96;233845;215;138928;-56
2023/11/03 11:44:30;;;;;;;7.50;3.80;;;;;;;16.06;59.64;96055.42;234173;215;138113;-52
2023/11/03 11:49:34;;;;;;;7.60;2.90;;;;;;;16.07;59.53;96063.93;234268;215;149276;-51
2023/11/03 11:54:38;;;;;;;7.90;2.70;;;;;;;16.08;59.61;96054.93;234180;215;140042;-51
2023/11/03 11:59:41;;;;;;;7.50;3.10;;;;;;;16.11;59.58;96071.50;234169;215;137060;-54
2023/11/03 12:04:52;;;;;;;6.80;2.40;;;;;;;16.13;59.57;96080.49;234235;215;149523;-53
2023/11/03 12:09:57;;;;;;;4.40;2.10;;;;;;;16.13;59.39;96093.88;234392;215;139145;-51
2023/11/03 12:15:01;;;;;;;5.40;2.40;;;;;;;16.15;59.48;96084.46;234195;215;137308;-52
2023/11/03 12:20:12;;;;;;;7.40;2.30;;;;;;;16.20;59.61;96079.93;234263;215;149905;-51
2023/11/03 12:25:18;;;;;;;5.90;2.20;;;;;;;16.23;59.73;96081.30;234197;215;139787;-50
2023/11/03 12:30:21;;;;;;;7.30;2.40;;;;;;;16.24;59.87;96076.52;234290;215;137642;-52
2023/11/03 12:35:31;;;;;;;7.20;2.30;;;;;;;16.23;60.08;96081.09;234030;215;149877;-52
2023/11/03 12:40:34;;;;;;;4.10;2.30;;;;;;;16.26;60.16;96088.08;234207;215;138749;-51
2023/11/03 12:45:37;;;;;;;3.60;2.30;;;;;;;16.25;60.44;96079.43;234382;215;137223;-51
2023/11/03 12:50:52;;;;;;;3.20;2.10;;;;;;;16.24;60.57;96066.77;234279;215;149088;-53
2023/11/03 12:56:01;;;;;;;76.70;56.20;;;;;;;16.23;60.99;96056.61;234260;214;138851;-53
2023/11/03 13:01:05;;;;;;;28.70;19.00;;;;;;;16.23;61.64;96045.59;233953;215;138036;-53
2023/11/03 13:06:11;;;;;;;5.90;2.70;;;;;;;16.22;61.55;96033.98;234195;215;149435;-55
2023/11/03 13:11:17;;;;;;;7.50;2.20;;;;;;;16.24;61.61;96024.91;234141;215;138690;-51
2023/11/03 13:16:20;;;;;;;5.30;1.90;;;;;;;16.26;61.55;96022.71;234170;215;137188;-54
2023/11/03 13:21:23;;;;;;;4.60;2.10;;;;;;;16.29;61.35;96024.29;234245;215;150345;-55
2023/11/03 13:26:26;;;;;;;5.80;2.20;;;;;;;16.40;61.24;95996.55;234186;215;140946;-54
2023/11/03 13:31:29;;;;;;;3.80;1.80;;;;;;;16.48;60.57;95971.65;234074;215;137058;-53
2023/11/03 13:36:34;;;;;;;5.60;1.80;;;;;;;16.50;60.24;95940.95;234132;215;149402;-55
2023/11/03 13:41:38;;;;;;;6.30;2.50;;;;;;;16.44;60.12;95944.60;233998;215;138635;-51
2023/11/03 13:46:41;;;;;;;5.30;2.10;;;;;;;16.39;60.26;95956.09;234124;215;137965;-51
2023/11/03 13:51:44;;;;;;;7.20;2.00;;;;;;;16.34;60.01;95971.08;234364;215;149405;-54
2023/11/03 13:56:47;;;;;;;4.80;2.00;;;;;;;16.27;60.02;96017.64;233787;215;139622;-51
2023/11/03 14:01:53;;;;;;;36.90;25.30;;;;;;;16.22;60.48;96044.27;234237;215;137701;-55
2023/11/03 14:06:56;;;;;;;3.10;2.40;;;;;;;16.21;60.87;96047.61;233595;215;149478;-57
2023/11/03 14:11:59;;;;;;;2.50;1.80;;;;;;;16.17;61.01;96039.09;234071;215;140010;-56
2023/11/03 14:17:07;;;;;;;2.70;1.80;;;;;;;16.13;61.02;95979.08;234180;216;138238;-57
2023/11/03 14:22:12;;;;;;;4.90;1.90;;;;;;;16.09;61.06;95928.11;234146;215;149845;-54
2023/11/03 14:27:17;;;;;;;2.60;1.60;;;;;;;16.07;61.04;95947.63;234055;215;138889;-57
2023/11/03 14:32:21;;;;;;;4.30;2.00;;;;;;;16.05;60.86;95973.45;234130;216;137946;-58
2023/11/03 14:37:25;;;;;;;2.90;2.00;;;;;;;16.03;60.92;95972.52;234136;215;149913;-58
2023/11/03 14:42:28;;;;;;;3.90;2.00;;;;;;;15.99;60.92;95966.44;234126;216;140021;-57
2023/11/03 14:47:31;;;;;;;2.80;1.80;;;;;;;15.98;61.04;95985.38;234146;215;137061;-56
2023/11/03 14:52:37;;;;;;;4.30;1.70;;;;;;;15.97;60.98;95980.30;234119;213;149586;-55
2023/11/03 14:57:42;;;;;;;3.30;1.90;;;;;;;15.94;61.10;96005.18;234216;216;138830;-59
2023/11/03 15:02:47;;;;;;;4.30;2.00;;;;;;;15.93;61.08;96011.20;234113;216;137437;-58
2023/11/03 15:07:52;;;;;;;6.50;1.80;;;;;;;15.90;61.09;96017.50;233811;216;150131;-56
2023/11/03 15:12:56;;;;;;;6.00;1.70;;;;;;;15.91;60.98;96022.70;234096;216;140900;-58
2023/11/03 15:17:59;;;;;;;7.70;2.10;;;;;;;15.92;60.93;96013.13;234182;216;140942;-58
2023/11/03 15:23:04;;;;;;;5.00;1.40;;;;;;;15.95;61.13;95994.65;234103;216;149415;-57
2023/11/03 15:28:07;;;;;;;2.50;1.90;;;;;;;15.95;61.16;96010.91;234209;216;139404;-52
2023/11/03 15:33:10;;;;;;;2.50;1.80;;;;;;;15.98;61.17;96020.79;234101;216;137982;-54
2023/11/03 15:38:14;;;;;;;5.80;2.10;;;;;;;16.00;61.17;96012.30;234082;216;150165;-55
2023/11/03 15:43:18;;;;;;;25.20;18.00;;;;;;;16.00;61.29;96014.77;234062;216;138990;-54
2023/11/03 15:48:21;;;;;;;4.40;2.20;;;;;;;16.00;61.50;96005.77;234105;216;138655;-54
2023/11/03 15:53:27;;;;;;;4.60;2.30;;;;;;;16.03;61.62;95975.52;234102;216;149967;-55
2023/11/03 15:58:32;;;;;;;8.50;2.90;;;;;;;16.02;61.43;95965.77;233995;216;139898;-54
2023/11/03 16:03:35;;;;;;;13.60;3.30;;;;;;;16.02;61.72;95924.93;234136;216;138581;-54
2023/11/03 16:08:38;;;;;;;7.00;3.00;;;;;;;16.01;61.86;95909.08;234050;216;149410;-56
2023/11/03 16:13:41;;;;;;;9.70;2.80;;;;;;;16.00;62.03;95971.65;234073;216;138806;-56
2023/11/03 16:18:45;;;;;;;9.30;3.00;;;;;;;15.96;62.03;96015.70;234169;216;137855;-56
2023/11/03 16:23:48;;;;;;;4.80;2.50;;;;;;;15.93;62.26;96042.22;234125;216;150212;-56
2023/11/03 16:28:51;;;;;;;7.20;2.80;;;;;;;15.91;62.40;96060.63;234146;216;138572;-54
2023/11/03 16:33:55;;;;;;;11.10;2.90;;;;;;;15.91;62.53;96094.80;234306;216;139732;-56
2023/11/03 16:38:58;;;;;;;13.20;2.90;;;;;;;15.90;62.58;96079.39;233963;216;149827;-53
2023/11/03 16:44:05;;;;;;;109.50;81.30;;;;;;;15.89;62.82;96054.50;234058;216;141376;-53
2023/11/03 16:49:13;;;;;;;8.80;3.80;;;;;;;15.88;62.78;96023.15;233920;216;139160;-51
2023/11/03 16:54:16;;;;;;;6.90;2.70;;;;;;;15.86;62.78;96014.27;234106;216;149825;-56
2023/11/03 16:59:22;;;;;;;15.20;3.60;;;;;;;15.90;62.56;96027.00;234141;216;140006;-58
2023/11/03 17:04:29;;;;;;;12.30;3.60;;;;;;;15.93;62.66;96024.65;234120;216;138976;-57
2023/11/03 17:09:32;;;;;;;13.90;3.60;;;;;;;15.96;62.30;96038.92;234232;216;149373;-58
2023/11/03 17:14:36;;;;;;;10.30;3.80;;;;;;;15.95;62.06;96043.67;234143;216;139829;-57
2023/11/03 17:19:39;;;;;;;14.50;4.00;;;;;;;15.94;62.34;96027.30;234134;216;141032;-55
2023/11/03 17:24:43;;;;;;;15.10;3.70;;;;;;;15.90;63.24;96001.09;234081;216;149558;-56
2023/11/03 17:29:46;;;;;;;10.00;3.70;;;;;;;15.88;63.43;96022.29;234094;216;139952;-61
2023/11/03 17:34:50;;;;;;;9.10;3.80;;;;;;;16.08;64.17;96052.87;234131;216;138382;-63
2023/11/03 17:39:54;;;;;;;9.20;4.00;;;;;;;16.30;62.72;96071.54;234269;216;149427;-64
2023/11/03 17:44:57;;;;;;;8.80;4.00;;;;;;;16.52;62.70;96073.87;233864;216;139368;-44
2023/11/03 17:50:03;;;;;;;47.40;35.40;;;;;;;17.05;64.32;96069.52;233992;216;139094;-59
2023/11/03 17:55:13;;;;;;;6.20;4.00;;;;;;;17.33;60.45;96071.31;234063;216;151798;-57
2023/11/03 18:00:18;;;;;;;9.30;5.00;;;;;;;17.08;61.05;96096.08;234024;216;139365;-54
2023/11/03 18:05:23;;;;;;;8.30;3.50;;;;;;;17.26;62.34;96110.40;234172;217;137361;-55
2023/11/03 18:10:27;;;;;;;268.90;24.00;;;;;;;17.13;61.14;96110.91;234035;216;149374;-54
2023/11/03 18:15:31;;;;;;;4.40;2.40;;;;;;;16.93;60.98;96117.08;234210;216;139372;-57
2023/11/03 18:20:38;;;;;;;95.30;74.60;;;;;;;16.54;60.35;96112.66;234134;216;137953;-56
2023/11/03 18:25:42;;;;;;;5.20;2.80;;;;;;;16.27;60.14;96103.61;233980;216;153872;-57
2023/11/03 18:30:45;;;;;;;4.00;2.50;;;;;;;16.08;59.61;96111.59;234058;216;140343;-57
2023/11/03 18:35:49;;;;;;;4.60;2.70;;;;;;;15.88;59.33;96115.54;233968;216;137396;-58
2023/11/03 18:40:52;;;;;;;3.40;2.40;;;;;;;15.78;59.50;96117.59;234088;216;150190;-56
2023/11/03 18:45:55;;;;;;;3.10;2.20;;;;;;;15.67;58.78;96123.27;234130;216;139471;-56
2023/11/03 18:50:59;;;;;;;3.70;1.50;;;;;;;15.58;58.30;96134.79;234043;216;137929;-57
2023/11/03 18:56:25;;;;;;;53.40;39.90;;;;;;;15.49;56.27;96159.93;234146;216;149674;-55
2023/11/03 19:01:48;;;;;;;1.70;1.10;;;;;;;15.54;54.70;96180.14;234071;216;139996;-57
2023/11/03 19:07:14;;;;;;;2.10;0.60;;;;;;;15.67;51.86;96187.61;233631;216;138658;-58
2023/11/03 19:12:37;;;;;;;0.90;0.40;;;;;;;15.74;49.54;96194.42;234010;216;149190;-56
2023/11/03 19:17:41;;;;;;;2.00;0.60;;;;;;;15.78;48.71;96191.56;234083;216;138922;-57
2023/11/03 19:22:44;;;;;;;1.20;0.60;;;;;;;15.84;48.52;96195.85;234115;216;138646;-57
2023/11/03 19:27:47;;;;;;;2.80;0.70;;;;;;;15.88;48.47;96211.30;234082;216;150227;-56
2023/11/03 19:32:55;;;;;;;1.60;0.90;;;;;;;15.88;48.62;96233.95;234009;216;139908;-56
2023/11/03 19:37:59;;;;;;;77.30;56.60;;;;;;;15.80;48.62;96248.84;234016;216;138062;-57
2023/11/03 19:43:04;;;;;;;3.20;2.00;;;;;;;15.62;48.74;96264.81;234006;217;150658;-56
2023/11/03 19:48:10;;;;;;;1.80;1.00;;;;;;;15.43;49.23;96261.16;234071;216;139409;-56
2023/11/03 19:53:16;;;;;;;1.70;0.70;;;;;;;15.25;49.41;96282.13;234008;217;137686;-57
2023/11/03 19:58:19;;;;;;;;;;;;;;;15.09;50.00;96294.95;234121;216;149353;-57
2023/11/03 20:03:24;;;;;;;1.00;0.70;;;;;;;15.00;50.29;96303.34;234281;216;138664;-57
2023/11/03 20:08:28;;;;;;;2.20;0.60;;;;;;;14.86;50.53;96318.77;233565;214;137750;-55
2023/11/03 20:13:31;;;;;;;1.50;0.70;;;;;;;14.73;50.83;96320.18;234115;214;149576;-55
2023/11/03 20:18:34;;;;;;;1.30;0.90;;;;;;;14.60;51.14;96323.23;234125;208;138971;-56
2023/11/03 20:23:38;;;;;;;1.70;0.80;;;;;;;14.51;51.58;96332.01;234163;209;143435;-57
2023/11/03 20:28:42;;;;;;;2.00;0.80;;;;;;;14.47;51.94;96343.64;234042;212;150523;-57
2023/11/03 20:33:47;;;;;;;2.30;0.90;;;;;;;14.46;51.80;96357.77;234213;213;138820;-56
2023/11/03 20:38:51;;;;;;;3.00;0.80;;;;;;;14.44;52.07;96381.07;234157;214;138018;-53
2023/11/03 20:43:55;;;;;;;2.50;0.70;;;;;;;14.42;52.22;96400.02;234057;213;149508;-55
2023/11/03 20:48:58;;;;;;;1.70;1.10;;;;;;;14.40;52.39;96419.38;234104;214;140026;-55
2023/11/03 20:54:02;;;;;;;1.20;0.90;;;;;;;14.40;52.81;96431.02;234138;214;138150;-55
2023/11/03 20:59:06;;;;;;;1.70;0.90;;;;;;;14.36;53.50;96436.44;234241;212;149327;-57
2023/11/03 21:04:10;;;;;;;3.60;0.80;;;;;;;14.24;54.41;96445.13;234195;216;139734;-58
2023/11/03 21:09:14;;;;;;;2.10;0.90;;;;;;;14.10;55.15;96453.89;234134;215;139182;-53
2023/11/03 21:14:18;;;;;;;0.90;0.70;;;;;;;14.00;55.57;96464.01;234058;213;150443;-57
2023/11/03 21:19:23;;;;;;;2.30;0.50;;;;;;;13.84;55.87;96473.48;234100;214;140490;-56
2023/11/03 21:24:26;;;;;;;2.80;0.70;;;;;;;13.63;56.04;96484.86;234146;213;137962;-56
2023/11/03 21:29:30;;;;;;;0.50;0.30;;;;;;;13.46;55.92;96507.40;234068;209;150911;-57
2023/11/03 21:34:33;;;;;;;1.30;0.50;;;;;;;13.31;55.66;96516.86;234084;214;138620;-56
2023/11/03 21:39:36;;;;;;;0.80;0.50;;;;;;;13.15;55.87;96529.50;234225;213;137068;-57
2023/11/03 21:44:40;;;;;;;0.80;0.50;;;;;;;12.98;55.97;96535.80;234135;214;151774;-55
2023/11/03 21:49:43;;;;;;;1.40;0.40;;;;;;;12.82;55.83;96541.86;234109;209;139322;-56
2023/11/03 21:54:47;;;;;;;0.70;0.30;;;;;;;12.76;55.70;96538.66;234017;214;137341;-58
2023/11/03 21:59:50;;;;;;;0.80;0.40;;;;;;;12.74;55.60;96553.84;234069;213;149365;-56
2023/11/03 22:04:53;;;;;;;2.20;0.50;;;;;;;12.69;55.53;96561.62;234127;214;138826;-58
2023/11/03 22:09:57;;;;;;;2.00;0.40;;;;;;;12.65;55.61;96562.33;234268;209;138071;-59
2023/11/03 22:15:01;;;;;;;0.50;0.40;;;;;;;12.59;55.64;96553.17;234059;214;149356;-57
2023/11/03 22:20:05;;;;;;;2.30;0.50;;;;;;;12.54;55.39;96566.11;234061;214;139763;-56
2023/11/03 22:25:08;;;;;;;0.50;0.40;;;;;;;12.45;54.27;96597.02;233765;214;138844;-57
2023/11/03 22:30:12;;;;;;;3.40;0.80;;;;;;;12.34;54.62;96622.20;234122;209;149620;-57
2023/11/03 22:35:16;;;;;;;1.20;0.60;;;;;;;12.20;55.91;96643.83;234113;216;138761;-58
2023/11/03 22:40:19;;;;;;;1.40;0.60;;;;;;;12.03;56.43;96670.30;234173;216;138717;-58
2023/11/03 22:45:22;;;;;;;1.30;0.70;;;;;;;11.88;57.26;96692.38;234292;216;149056;-58
2023/11/03 22:50:25;;;;;;;1.90;0.70;;;;;;;11.77;57.64;96711.73;234211;216;140161;-57
2023/11/03 22:55:29;;;;;;;1.30;0.70;;;;;;;11.69;57.93;96736.91;234264;216;137032;-57
2023/11/03 23:00:33;;;;;;;2.30;0.90;;;;;;;11.59;58.43;96742.60;234228;215;149413;-58
2023/11/03 23:05:36;;;;;;;0.90;0.70;;;;;;;11.46;58.70;96749.59;234196;216;138945;-59
2023/11/03 23:10:42;;;;;;;2.50;0.90;;;;;;;11.36;58.73;96760.05;234165;216;138179;-59
2023/11/03 23:15:46;;;;;;;1.90;0.80;;;;;;;11.26;58.98;96769.39;234337;213;149614;-58
2023/11/03 23:20:49;;;;;;;1.60;1.00;;;;;;;11.27;59.05;96774.98;234155;216;139514;-58
2023/11/03 23:25:52;;;;;;;1.40;0.70;;;;;;;11.31;58.95;96795.00;234178;214;141122;-57
2023/11/03 23:30:55;;;;;;;1.70;0.80;;;;;;;11.23;59.12;96806.31;234229;216;149289;-56